sensor_id;sensor_type;location;lat;lon;timestamp;P1;durP1;ratioP1;P2;durP2;ratioP2
6667;SDS011;3370;47.712;9.082;2023-12-20T00:00:05;6.00;;;5.10;;
6667;SDS011;3370;47.712;9.082;2023-12-20T00:02:31;6.17;;;4.97;;
6667;SDS011;3370;47.712;9.082;2023-12-20T00:04:57;7.67;;;4.80;;
6667;SDS011;3370;47.712;9.082;2023-12-20T00:07:23;8.17;;;5.43;;
6667;SDS011;3370;47.712;9.082;2023-12-20T00:09:49;6.00;;;5.23;;
6667;SDS011;3370;47.712;9.082;2023-12-20T00:12:14;6.20;;;5.23;;
6667;SDS011;3370;47.712;9.082;2023-12-20T00:14:40;7.23;;;5.83;;
6667;SDS011;3370;47.712;9.082;2023-12-20T00:17:06;5.43;;;4.40;;
6667;SDS011;3370;47.712;9.082;2023-12-20T00:19:32;5.40;;;4.63;;
6667;SDS011;3370;47.712;9.082;2023-12-20T00:21:58;6.90;;;4.53;;
6667;SDS011;3370;47.712;9.082;2023-12-20T00:24:24;5.23;;;4.70;;
6667;SDS011;3370;47.712;9.082;2023-12-20T00:26:50;5.03;;;4.63;;
6667;SDS011;3370;47.712;9.082;2023-12-20T00:29:16;7.97;;;5.97;;
6667;SDS011;3370;47.712;9.082;2023-12-20T00:31:42;6.53;;;5.80;;
6667;SDS011;3370;47.712;9.082;2023-12-20T00:34:08;5.50;;;5.00;;
6667;SDS011;3370;47.712;9.082;2023-12-20T00:36:33;15.27;;;4.30;;
6667;SDS011;3370;47.712;9.082;2023-12-20T00:38:59;6.13;;;5.50;;
6667;SDS011;3370;47.712;9.082;2023-12-20T00:41:25;5.43;;;4.60;;
6667;SDS011;3370;47.712;9.082;2023-12-20T00:43:51;6.20;;;5.10;;
6667;SDS011;3370;47.712;9.082;2023-12-20T00:46:16;5.40;;;4.70;;
6667;SDS011;3370;47.712;9.082;2023-12-20T00:48:42;8.10;;;4.90;;
6667;SDS011;3370;47.712;9.082;2023-12-20T00:51:10;7.43;;;4.83;;
6667;SDS011;3370;47.712;9.082;2023-12-20T00:53:36;7.03;;;5.00;;
6667;SDS011;3370;47.712;9.082;2023-12-20T00:56:02;6.27;;;4.90;;
6667;SDS011;3370;47.712;9.082;2023-12-20T00:58:28;4.60;;;4.20;;
6667;SDS011;3370;47.712;9.082;2023-12-20T01:00:53;7.87;;;4.90;;
6667;SDS011;3370;47.712;9.082;2023-12-20T01:03:19;6.10;;;4.63;;
6667;SDS011;3370;47.712;9.082;2023-12-20T01:05:45;5.30;;;4.83;;
6667;SDS011;3370;47.712;9.082;2023-12-20T01:08:11;6.40;;;4.80;;
6667;SDS011;3370;47.712;9.082;2023-12-20T01:10:37;4.63;;;4.30;;
6667;SDS011;3370;47.712;9.082;2023-12-20T01:13:03;11.20;;;4.87;;
6667;SDS011;3370;47.712;9.082;2023-12-20T01:15:29;7.10;;;5.33;;
6667;SDS011;3370;47.712;9.082;2023-12-20T01:17:55;5.43;;;4.40;;
6667;SDS011;3370;47.712;9.082;2023-12-20T01:20:21;8.90;;;6.43;;
6667;SDS011;3370;47.712;9.082;2023-12-20T01:22:47;8.20;;;6.20;;
6667;SDS011;3370;47.712;9.082;2023-12-20T01:25:13;13.10;;;4.60;;
6667;SDS011;3370;47.712;9.082;2023-12-20T01:27:39;6.00;;;5.30;;
6667;SDS011;3370;47.712;9.082;2023-12-20T01:30:04;5.60;;;5.10;;
6667;SDS011;3370;47.712;9.082;2023-12-20T01:32:31;5.03;;;4.53;;
6667;SDS011;3370;47.712;9.082;2023-12-20T01:34:57;5.20;;;4.80;;
6667;SDS011;3370;47.712;9.082;2023-12-20T01:37:22;5.23;;;4.60;;
6667;SDS011;3370;47.712;9.082;2023-12-20T01:39:50;5.37;;;4.87;;
6667;SDS011;3370;47.712;9.082;2023-12-20T01:42:16;5.90;;;5.30;;
6667;SDS011;3370;47.712;9.082;2023-12-20T01:44:41;6.47;;;5.50;;
6667;SDS011;3370;47.712;9.082;2023-12-20T01:47:07;6.43;;;5.43;;
6667;SDS011;3370;47.712;9.082;2023-12-20T01:49:33;5.37;;;4.87;;
6667;SDS011;3370;47.712;9.082;2023-12-20T01:51:59;5.70;;;5.10;;
6667;SDS011;3370;47.712;9.082;2023-12-20T01:54:25;6.50;;;5.10;;
6667;SDS011;3370;47.712;9.082;2023-12-20T01:56:51;6.23;;;5.50;;
6667;SDS011;3370;47.712;9.082;2023-12-20T01:59:17;6.97;;;6.03;;
6667;SDS011;3370;47.712;9.082;2023-12-20T02:01:45;8.37;;;5.73;;
6667;SDS011;3370;47.712;9.082;2023-12-20T02:04:11;7.73;;;5.80;;
6667;SDS011;3370;47.712;9.082;2023-12-20T02:06:37;9.60;;;6.40;;
6667;SDS011;3370;47.712;9.082;2023-12-20T02:09:04;6.63;;;5.70;;
6667;SDS011;3370;47.712;9.082;2023-12-20T02:11:31;8.43;;;5.60;;
6667;SDS011;3370;47.712;9.082;2023-12-20T02:13:58;6.40;;;5.67;;
6667;SDS011;3370;47.712;9.082;2023-12-20T02:16:24;11.73;;;5.90;;
6667;SDS011;3370;47.712;9.082;2023-12-20T02:18:49;8.43;;;5.80;;
6667;SDS011;3370;47.712;9.082;2023-12-20T02:21:15;5.57;;;4.80;;
6667;SDS011;3370;47.712;9.082;2023-12-20T02:23:41;7.47;;;6.00;;
6667;SDS011;3370;47.712;9.082;2023-12-20T02:26:06;8.50;;;5.40;;
6667;SDS011;3370;47.712;9.082;2023-12-20T02:28:33;8.60;;;6.40;;
6667;SDS011;3370;47.712;9.082;2023-12-20T02:30:59;6.63;;;5.93;;
6667;SDS011;3370;47.712;9.082;2023-12-20T02:33:25;7.40;;;5.70;;
6667;SDS011;3370;47.712;9.082;2023-12-20T02:35:51;5.83;;;4.80;;
6667;SDS011;3370;47.712;9.082;2023-12-20T02:38:17;7.87;;;5.93;;
6667;SDS011;3370;47.712;9.082;2023-12-20T02:40:43;9.00;;;5.33;;
6667;SDS011;3370;47.712;9.082;2023-12-20T02:43:09;7.37;;;6.13;;
6667;SDS011;3370;47.712;9.082;2023-12-20T02:45:34;12.97;;;7.80;;
6667;SDS011;3370;47.712;9.082;2023-12-20T02:48:00;10.20;;;7.10;;
6667;SDS011;3370;47.712;9.082;2023-12-20T02:50:26;9.43;;;6.80;;
6667;SDS011;3370;47.712;9.082;2023-12-20T02:52:52;8.47;;;6.33;;
6667;SDS011;3370;47.712;9.082;2023-12-20T02:55:18;8.73;;;7.23;;
6667;SDS011;3370;47.712;9.082;2023-12-20T02:57:44;8.83;;;7.40;;
6667;SDS011;3370;47.712;9.082;2023-12-20T03:00:09;11.20;;;7.77;;
6667;SDS011;3370;47.712;9.082;2023-12-20T03:02:36;7.43;;;6.33;;
6667;SDS011;3370;47.712;9.082;2023-12-20T03:05:02;11.90;;;7.63;;
6667;SDS011;3370;47.712;9.082;2023-12-20T03:07:28;10.43;;;7.07;;
6667;SDS011;3370;47.712;9.082;2023-12-20T03:09:54;10.30;;;6.60;;
6667;SDS011;3370;47.712;9.082;2023-12-20T03:12:20;9.53;;;7.43;;
6667;SDS011;3370;47.712;9.082;2023-12-20T03:14:45;7.90;;;6.50;;
6667;SDS011;3370;47.712;9.082;2023-12-20T03:17:11;11.70;;;7.60;;
6667;SDS011;3370;47.712;9.082;2023-12-20T03:19:37;9.77;;;7.40;;
6667;SDS011;3370;47.712;9.082;2023-12-20T03:22:03;7.37;;;5.67;;
6667;SDS011;3370;47.712;9.082;2023-12-20T03:24:28;9.10;;;7.47;;
6667;SDS011;3370;47.712;9.082;2023-12-20T03:26:54;7.87;;;6.90;;
6667;SDS011;3370;47.712;9.082;2023-12-20T03:29:20;7.70;;;6.27;;
6667;SDS011;3370;47.712;9.082;2023-12-20T03:31:45;8.50;;;7.30;;
6667;SDS011;3370;47.712;9.082;2023-12-20T03:34:11;9.50;;;6.80;;
6667;SDS011;3370;47.712;9.082;2023-12-20T03:36:37;9.67;;;6.50;;
6667;SDS011;3370;47.712;9.082;2023-12-20T03:39:03;9.97;;;8.10;;
6667;SDS011;3370;47.712;9.082;2023-12-20T03:41:30;11.00;;;8.10;;
6667;SDS011;3370;47.712;9.082;2023-12-20T03:43:55;11.70;;;7.87;;
6667;SDS011;3370;47.712;9.082;2023-12-20T03:46:21;12.40;;;8.40;;
6667;SDS011;3370;47.712;9.082;2023-12-20T03:48:47;10.43;;;7.83;;
6667;SDS011;3370;47.712;9.082;2023-12-20T03:51:13;12.43;;;9.20;;
6667;SDS011;3370;47.712;9.082;2023-12-20T03:53:38;10.70;;;8.07;;
6667;SDS011;3370;47.712;9.082;2023-12-20T03:56:05;18.03;;;8.83;;
6667;SDS011;3370;47.712;9.082;2023-12-20T03:58:31;11.57;;;9.00;;
6667;SDS011;3370;47.712;9.082;2023-12-20T04:00:57;13.70;;;9.33;;
6667;SDS011;3370;47.712;9.082;2023-12-20T04:03:23;13.30;;;9.77;;
6667;SDS011;3370;47.712;9.082;2023-12-20T04:05:48;11.70;;;10.17;;
6667;SDS011;3370;47.712;9.082;2023-12-20T04:08:14;14.73;;;10.20;;
6667;SDS011;3370;47.712;9.082;2023-12-20T04:10:40;11.60;;;9.80;;
6667;SDS011;3370;47.712;9.082;2023-12-20T04:13:06;13.73;;;9.83;;
6667;SDS011;3370;47.712;9.082;2023-12-20T04:15:32;13.20;;;10.00;;
6667;SDS011;3370;47.712;9.082;2023-12-20T04:17:57;13.17;;;10.67;;
6667;SDS011;3370;47.712;9.082;2023-12-20T04:20:23;14.70;;;10.63;;
6667;SDS011;3370;47.712;9.082;2023-12-20T04:22:49;14.80;;;10.90;;
6667;SDS011;3370;47.712;9.082;2023-12-20T04:25:15;13.47;;;10.60;;
6667;SDS011;3370;47.712;9.082;2023-12-20T04:27:41;15.77;;;10.67;;
6667;SDS011;3370;47.712;9.082;2023-12-20T04:30:06;15.10;;;11.30;;
6667;SDS011;3370;47.712;9.082;2023-12-20T04:32:33;15.57;;;10.70;;
6667;SDS011;3370;47.712;9.082;2023-12-20T04:34:58;17.33;;;11.20;;
6667;SDS011;3370;47.712;9.082;2023-12-20T04:37:24;18.77;;;11.53;;
6667;SDS011;3370;47.712;9.082;2023-12-20T04:39:50;15.33;;;12.13;;
6667;SDS011;3370;47.712;9.082;2023-12-20T04:42:16;15.50;;;11.57;;
6667;SDS011;3370;47.712;9.082;2023-12-20T04:44:41;14.07;;;10.50;;
6667;SDS011;3370;47.712;9.082;2023-12-20T04:47:08;17.27;;;11.60;;
6667;SDS011;3370;47.712;9.082;2023-12-20T04:49:34;16.67;;;11.30;;
6667;SDS011;3370;47.712;9.082;2023-12-20T04:52:00;14.20;;;11.10;;
6667;SDS011;3370;47.712;9.082;2023-12-20T04:54:26;12.90;;;10.33;;
6667;SDS011;3370;47.712;9.082;2023-12-20T04:56:51;17.30;;;10.80;;
6667;SDS011;3370;47.712;9.082;2023-12-20T04:59:17;17.27;;;11.87;;
6667;SDS011;3370;47.712;9.082;2023-12-20T05:01:43;12.50;;;9.97;;
6667;SDS011;3370;47.712;9.082;2023-12-20T05:04:09;16.47;;;11.30;;
6667;SDS011;3370;47.712;9.082;2023-12-20T05:06:35;14.57;;;11.80;;
6667;SDS011;3370;47.712;9.082;2023-12-20T05:09:00;17.03;;;12.67;;
6667;SDS011;3370;47.712;9.082;2023-12-20T05:11:26;14.70;;;10.13;;
6667;SDS011;3370;47.712;9.082;2023-12-20T05:13:52;14.23;;;11.87;;
6667;SDS011;3370;47.712;9.082;2023-12-20T05:16:17;13.67;;;10.67;;
6667;SDS011;3370;47.712;9.082;2023-12-20T05:18:44;15.40;;;11.83;;
6667;SDS011;3370;47.712;9.082;2023-12-20T05:21:10;12.57;;;10.40;;
6667;SDS011;3370;47.712;9.082;2023-12-20T05:23:36;14.17;;;11.07;;
6667;SDS011;3370;47.712;9.082;2023-12-20T05:26:02;16.17;;;12.03;;
6667;SDS011;3370;47.712;9.082;2023-12-20T05:28:28;15.17;;;10.03;;
6667;SDS011;3370;47.712;9.082;2023-12-20T05:30:54;12.20;;;9.90;;
6667;SDS011;3370;47.712;9.082;2023-12-20T05:33:19;12.00;;;9.20;;
6667;SDS011;3370;47.712;9.082;2023-12-20T05:35:45;14.30;;;9.10;;
6667;SDS011;3370;47.712;9.082;2023-12-20T05:38:11;10.77;;;8.80;;
6667;SDS011;3370;47.712;9.082;2023-12-20T05:40:37;11.80;;;9.40;;
6667;SDS011;3370;47.712;9.082;2023-12-20T05:43:03;12.30;;;9.70;;
6667;SDS011;3370;47.712;9.082;2023-12-20T05:45:29;10.90;;;8.50;;
6667;SDS011;3370;47.712;9.082;2023-12-20T05:47:55;12.87;;;9.97;;
6667;SDS011;3370;47.712;9.082;2023-12-20T05:50:20;12.57;;;9.40;;
6667;SDS011;3370;47.712;9.082;2023-12-20T05:52:46;8.70;;;7.83;;
6667;SDS011;3370;47.712;9.082;2023-12-20T05:55:12;12.80;;;9.33;;
6667;SDS011;3370;47.712;9.082;2023-12-20T05:57:38;11.63;;;9.53;;
6667;SDS011;3370;47.712;9.082;2023-12-20T06:00:04;13.47;;;10.20;;
6667;SDS011;3370;47.712;9.082;2023-12-20T06:02:31;13.07;;;9.73;;
6667;SDS011;3370;47.712;9.082;2023-12-20T06:04:57;12.90;;;10.83;;
6667;SDS011;3370;47.712;9.082;2023-12-20T06:07:23;13.50;;;9.93;;
6667;SDS011;3370;47.712;9.082;2023-12-20T06:09:49;11.80;;;9.23;;
6667;SDS011;3370;47.712;9.082;2023-12-20T06:12:14;10.57;;;8.40;;
6667;SDS011;3370;47.712;9.082;2023-12-20T06:14:40;12.00;;;9.07;;
6667;SDS011;3370;47.712;9.082;2023-12-20T06:17:06;10.67;;;8.33;;
6667;SDS011;3370;47.712;9.082;2023-12-20T06:19:32;13.43;;;9.60;;
6667;SDS011;3370;47.712;9.082;2023-12-20T06:21:58;14.53;;;10.77;;
6667;SDS011;3370;47.712;9.082;2023-12-20T06:24:23;11.77;;;10.23;;
6667;SDS011;3370;47.712;9.082;2023-12-20T06:26:52;15.00;;;11.37;;
6667;SDS011;3370;47.712;9.082;2023-12-20T06:29:20;16.57;;;10.33;;
6667;SDS011;3370;47.712;9.082;2023-12-20T06:31:45;13.60;;;11.10;;
6667;SDS011;3370;47.712;9.082;2023-12-20T06:34:11;12.03;;;10.40;;
6667;SDS011;3370;47.712;9.082;2023-12-20T06:36:37;13.00;;;10.60;;
6667;SDS011;3370;47.712;9.082;2023-12-20T06:39:03;14.80;;;10.90;;
6667;SDS011;3370;47.712;9.082;2023-12-20T06:41:29;13.70;;;11.20;;
6667;SDS011;3370;47.712;9.082;2023-12-20T06:43:55;11.97;;;9.70;;
6667;SDS011;3370;47.712;9.082;2023-12-20T06:46:21;13.10;;;10.67;;
6667;SDS011;3370;47.712;9.082;2023-12-20T06:48:47;13.57;;;10.43;;
6667;SDS011;3370;47.712;9.082;2023-12-20T06:51:14;12.23;;;10.90;;
6667;SDS011;3370;47.712;9.082;2023-12-20T06:53:42;15.00;;;10.30;;
6667;SDS011;3370;47.712;9.082;2023-12-20T06:56:09;16.97;;;12.23;;
6667;SDS011;3370;47.712;9.082;2023-12-20T06:58:37;15.50;;;11.93;;
6667;SDS011;3370;47.712;9.082;2023-12-20T07:01:03;16.70;;;11.90;;
6667;SDS011;3370;47.712;9.082;2023-12-20T07:03:29;16.53;;;11.63;;
6667;SDS011;3370;47.712;9.082;2023-12-20T07:05:55;17.97;;;13.10;;
6667;SDS011;3370;47.712;9.082;2023-12-20T07:08:21;14.17;;;10.53;;
6667;SDS011;3370;47.712;9.082;2023-12-20T07:10:46;18.30;;;13.10;;
6667;SDS011;3370;47.712;9.082;2023-12-20T07:13:12;16.70;;;12.17;;
6667;SDS011;3370;47.712;9.082;2023-12-20T07:15:39;12.60;;;11.00;;
6667;SDS011;3370;47.712;9.082;2023-12-20T07:18:05;13.43;;;10.63;;
6667;SDS011;3370;47.712;9.082;2023-12-20T07:20:31;14.80;;;10.87;;
6667;SDS011;3370;47.712;9.082;2023-12-20T07:22:57;11.80;;;10.13;;
6667;SDS011;3370;47.712;9.082;2023-12-20T07:25:23;15.00;;;11.80;;
6667;SDS011;3370;47.712;9.082;2023-12-20T07:27:48;14.80;;;11.80;;
6667;SDS011;3370;47.712;9.082;2023-12-20T07:30:14;12.83;;;10.27;;
6667;SDS011;3370;47.712;9.082;2023-12-20T07:32:40;13.57;;;10.97;;
6667;SDS011;3370;47.712;9.082;2023-12-20T07:35:06;11.77;;;10.30;;
6667;SDS011;3370;47.712;9.082;2023-12-20T07:37:32;12.63;;;9.90;;
6667;SDS011;3370;47.712;9.082;2023-12-20T07:39:58;15.13;;;10.33;;
6667;SDS011;3370;47.712;9.082;2023-12-20T07:42:23;13.27;;;9.90;;
6667;SDS011;3370;47.712;9.082;2023-12-20T07:44:49;15.13;;;11.07;;
6667;SDS011;3370;47.712;9.082;2023-12-20T07:47:15;15.40;;;11.80;;
6667;SDS011;3370;47.712;9.082;2023-12-20T07:49:46;16.00;;;10.87;;
6667;SDS011;3370;47.712;9.082;2023-12-20T07:52:13;12.97;;;11.10;;
6667;SDS011;3370;47.712;9.082;2023-12-20T07:54:39;17.77;;;12.60;;
6667;SDS011;3370;47.712;9.082;2023-12-20T07:57:05;19.10;;;12.10;;
6667;SDS011;3370;47.712;9.082;2023-12-20T07:59:31;14.30;;;11.80;;
6667;SDS011;3370;47.712;9.082;2023-12-20T08:01:57;17.57;;;10.93;;
6667;SDS011;3370;47.712;9.082;2023-12-20T08:04:22;14.90;;;11.53;;
6667;SDS011;3370;47.712;9.082;2023-12-20T08:06:48;13.90;;;11.00;;
6667;SDS011;3370;47.712;9.082;2023-12-20T08:09:15;15.67;;;12.33;;
6667;SDS011;3370;47.712;9.082;2023-12-20T08:11:44;14.73;;;10.83;;
6667;SDS011;3370;47.712;9.082;2023-12-20T08:14:11;15.57;;;11.97;;
6667;SDS011;3370;47.712;9.082;2023-12-20T08:16:36;13.87;;;10.00;;
6667;SDS011;3370;47.712;9.082;2023-12-20T08:19:02;15.10;;;10.83;;
6667;SDS011;3370;47.712;9.082;2023-12-20T08:21:28;14.57;;;11.17;;
6667;SDS011;3370;47.712;9.082;2023-12-20T08:23:54;14.27;;;9.20;;
6667;SDS011;3370;47.712;9.082;2023-12-20T08:26:20;13.73;;;9.70;;
6667;SDS011;3370;47.712;9.082;2023-12-20T08:28:49;14.03;;;9.30;;
6667;SDS011;3370;47.712;9.082;2023-12-20T08:31:16;10.63;;;9.50;;
6667;SDS011;3370;47.712;9.082;2023-12-20T08:33:45;12.60;;;10.07;;
6667;SDS011;3370;47.712;9.082;2023-12-20T08:36:13;14.77;;;9.27;;
6667;SDS011;3370;47.712;9.082;2023-12-20T08:38:39;10.13;;;8.20;;
6667;SDS011;3370;47.712;9.082;2023-12-20T08:41:05;10.80;;;9.00;;
6667;SDS011;3370;47.712;9.082;2023-12-20T08:43:31;9.97;;;8.70;;
6667;SDS011;3370;47.712;9.082;2023-12-20T08:45:59;11.00;;;9.43;;
6667;SDS011;3370;47.712;9.082;2023-12-20T08:48:25;9.87;;;8.33;;
6667;SDS011;3370;47.712;9.082;2023-12-20T08:50:51;9.40;;;7.93;;
6667;SDS011;3370;47.712;9.082;2023-12-20T08:53:17;8.13;;;6.50;;
6667;SDS011;3370;47.712;9.082;2023-12-20T08:55:44;8.60;;;6.70;;
6667;SDS011;3370;47.712;9.082;2023-12-20T08:58:10;8.43;;;6.40;;
6667;SDS011;3370;47.712;9.082;2023-12-20T09:00:36;7.10;;;6.40;;
6667;SDS011;3370;47.712;9.082;2023-12-20T09:03:03;7.57;;;6.63;;
6667;SDS011;3370;47.712;9.082;2023-12-20T09:05:29;8.30;;;7.10;;
6667;SDS011;3370;47.712;9.082;2023-12-20T09:07:55;7.20;;;5.73;;
6667;SDS011;3370;47.712;9.082;2023-12-20T09:10:21;10.07;;;5.90;;
6667;SDS011;3370;47.712;9.082;2023-12-20T09:12:50;7.40;;;6.10;;
6667;SDS011;3370;47.712;9.082;2023-12-20T09:15:21;6.30;;;5.70;;
6667;SDS011;3370;47.712;9.082;2023-12-20T09:17:52;6.43;;;5.40;;
6667;SDS011;3370;47.712;9.082;2023-12-20T09:20:18;6.00;;;5.40;;
6667;SDS011;3370;47.712;9.082;2023-12-20T09:22:44;5.10;;;4.60;;
6667;SDS011;3370;47.712;9.082;2023-12-20T09:25:10;5.50;;;4.90;;
6667;SDS011;3370;47.712;9.082;2023-12-20T09:27:37;5.73;;;5.13;;
6667;SDS011;3370;47.712;9.082;2023-12-20T09:30:04;5.80;;;5.30;;
6667;SDS011;3370;47.712;9.082;2023-12-20T09:32:30;5.00;;;4.50;;
6667;SDS011;3370;47.712;9.082;2023-12-20T09:34:57;4.37;;;3.97;;
6667;SDS011;3370;47.712;9.082;2023-12-20T09:37:22;5.43;;;4.90;;
6667;SDS011;3370;47.712;9.082;2023-12-20T09:39:51;4.80;;;4.40;;
6667;SDS011;3370;47.712;9.082;2023-12-20T09:42:23;4.60;;;4.20;;
6667;SDS011;3370;47.712;9.082;2023-12-20T09:45:08;4.03;;;3.63;;
6667;SDS011;3370;47.712;9.082;2023-12-20T09:47:37;4.10;;;3.70;;
6667;SDS011;3370;47.712;9.082;2023-12-20T09:50:03;6.40;;;4.07;;
6667;SDS011;3370;47.712;9.082;2023-12-20T09:52:29;4.27;;;3.77;;
6667;SDS011;3370;47.712;9.082;2023-12-20T09:54:56;4.27;;;3.90;;
6667;SDS011;3370;47.712;9.082;2023-12-20T09:57:22;3.83;;;3.53;;
6667;SDS011;3370;47.712;9.082;2023-12-20T09:59:48;3.63;;;3.33;;
6667;SDS011;3370;47.712;9.082;2023-12-20T10:02:15;4.53;;;4.13;;
6667;SDS011;3370;47.712;9.082;2023-12-20T10:04:47;3.73;;;3.43;;
6667;SDS011;3370;47.712;9.082;2023-12-20T10:07:13;3.53;;;3.30;;
6667;SDS011;3370;47.712;9.082;2023-12-20T10:09:38;3.43;;;3.23;;
6667;SDS011;3370;47.712;9.082;2023-12-20T10:12:05;2.97;;;2.77;;
6667;SDS011;3370;47.712;9.082;2023-12-20T10:14:32;2.47;;;2.37;;
6667;SDS011;3370;47.712;9.082;2023-12-20T10:17:04;3.40;;;3.20;;
6667;SDS011;3370;47.712;9.082;2023-12-20T10:19:32;3.50;;;3.20;;
6667;SDS011;3370;47.712;9.082;2023-12-20T10:22:03;2.90;;;2.70;;
6667;SDS011;3370;47.712;9.082;2023-12-20T10:24:30;3.47;;;3.17;;
6667;SDS011;3370;47.712;9.082;2023-12-20T10:27:02;3.63;;;3.33;;
6667;SDS011;3370;47.712;9.082;2023-12-20T10:29:36;3.53;;;3.23;;
6667;SDS011;3370;47.712;9.082;2023-12-20T10:32:22;3.60;;;3.30;;
6667;SDS011;3370;47.712;9.082;2023-12-20T10:34:49;3.87;;;2.90;;
6667;SDS011;3370;47.712;9.082;2023-12-20T10:37:16;3.87;;;3.57;;
6667;SDS011;3370;47.712;9.082;2023-12-20T10:39:48;4.90;;;2.93;;
6667;SDS011;3370;47.712;9.082;2023-12-20T10:42:17;2.67;;;2.50;;
6667;SDS011;3370;47.712;9.082;2023-12-20T10:44:46;3.00;;;2.80;;
6667;SDS011;3370;47.712;9.082;2023-12-20T10:47:13;3.10;;;2.90;;
6667;SDS011;3370;47.712;9.082;2023-12-20T10:49:38;3.23;;;3.03;;
6667;SDS011;3370;47.712;9.082;2023-12-20T10:52:05;2.80;;;2.70;;
6667;SDS011;3370;47.712;9.082;2023-12-20T10:54:33;2.23;;;2.03;;
6667;SDS011;3370;47.712;9.082;2023-12-20T10:56:59;2.40;;;2.20;;
6667;SDS011;3370;47.712;9.082;2023-12-20T10:59:29;3.00;;;2.70;;
6667;SDS011;3370;47.712;9.082;2023-12-20T11:02:01;2.17;;;2.07;;
6667;SDS011;3370;47.712;9.082;2023-12-20T11:07:29;2.00;;;1.53;;
6667;SDS011;3370;47.712;9.082;2023-12-20T11:10:02;1.60;;;1.50;;
6667;SDS011;3370;47.712;9.082;2023-12-20T11:15:24;1.57;;;1.47;;
6667;SDS011;3370;47.712;9.082;2023-12-20T11:17:56;1.30;;;1.30;;
6667;SDS011;3370;47.712;9.082;2023-12-20T11:20:23;1.23;;;1.23;;
6667;SDS011;3370;47.712;9.082;2023-12-20T11:23:00;1.47;;;1.47;;
6667;SDS011;3370;47.712;9.082;2023-12-20T11:25:26;1.10;;;1.10;;
6667;SDS011;3370;47.712;9.082;2023-12-20T11:28:10;3.37;;;1.67;;
6667;SDS011;3370;47.712;9.082;2023-12-20T11:30:40;1.77;;;1.50;;
6667;SDS011;3370;47.712;9.082;2023-12-20T11:33:17;1.73;;;1.63;;
6667;SDS011;3370;47.712;9.082;2023-12-20T11:35:51;8.03;;;5.07;;
6667;SDS011;3370;47.712;9.082;2023-12-20T11:38:20;3.97;;;1.80;;
6667;SDS011;3370;47.712;9.082;2023-12-20T11:40:47;2.67;;;2.47;;
6667;SDS011;3370;47.712;9.082;2023-12-20T11:46:08;1.10;;;1.00;;
6667;SDS011;3370;47.712;9.082;2023-12-20T11:48:35;1.20;;;1.20;;
6667;SDS011;3370;47.712;9.082;2023-12-20T11:51:10;1.10;;;1.10;;
6667;SDS011;3370;47.712;9.082;2023-12-20T11:53:36;2.97;;;1.20;;
6667;SDS011;3370;47.712;9.082;2023-12-20T11:56:03;1.10;;;1.10;;
6667;SDS011;3370;47.712;9.082;2023-12-20T11:58:32;1.50;;;1.40;;
6667;SDS011;3370;47.712;9.082;2023-12-20T12:00:58;1.17;;;1.10;;
6667;SDS011;3370;47.712;9.082;2023-12-20T12:03:24;1.10;;;1.10;;
6667;SDS011;3370;47.712;9.082;2023-12-20T12:05:50;1.10;;;1.10;;
6667;SDS011;3370;47.712;9.082;2023-12-20T12:08:16;1.03;;;0.97;;
6667;SDS011;3370;47.712;9.082;2023-12-20T12:10:43;1.50;;;1.40;;
6667;SDS011;3370;47.712;9.082;2023-12-20T12:13:10;0.97;;;0.97;;
6667;SDS011;3370;47.712;9.082;2023-12-20T12:15:36;0.97;;;0.97;;
6667;SDS011;3370;47.712;9.082;2023-12-20T12:18:02;1.00;;;1.00;;
6667;SDS011;3370;47.712;9.082;2023-12-20T12:20:30;0.80;;;0.80;;
6667;SDS011;3370;47.712;9.082;2023-12-20T12:22:59;1.10;;;1.10;;
6667;SDS011;3370;47.712;9.082;2023-12-20T12:25:28;0.97;;;0.97;;
6667;SDS011;3370;47.712;9.082;2023-12-20T12:27:56;0.70;;;0.70;;
6667;SDS011;3370;47.712;9.082;2023-12-20T12:30:23;0.97;;;0.97;;
6667;SDS011;3370;47.712;9.082;2023-12-20T12:32:50;0.90;;;0.90;;
6667;SDS011;3370;47.712;9.082;2023-12-20T12:35:20;1.03;;;1.03;;
6667;SDS011;3370;47.712;9.082;2023-12-20T12:37:47;0.90;;;0.90;;
6667;SDS011;3370;47.712;9.082;2023-12-20T12:40:13;1.37;;;0.90;;
6667;SDS011;3370;47.712;9.082;2023-12-20T12:42:41;0.80;;;0.80;;
6667;SDS011;3370;47.712;9.082;2023-12-20T12:45:09;1.00;;;1.00;;
6667;SDS011;3370;47.712;9.082;2023-12-20T12:47:39;1.33;;;1.33;;
6667;SDS011;3370;47.712;9.082;2023-12-20T12:50:05;1.50;;;1.50;;
6667;SDS011;3370;47.712;9.082;2023-12-20T12:52:31;1.40;;;1.30;;
6667;SDS011;3370;47.712;9.082;2023-12-20T12:54:57;1.20;;;1.20;;
6667;SDS011;3370;47.712;9.082;2023-12-20T12:57:23;1.37;;;1.20;;
6667;SDS011;3370;47.712;9.082;2023-12-20T12:59:49;1.00;;;1.00;;
6667;SDS011;3370;47.712;9.082;2023-12-20T13:02:15;1.10;;;1.10;;
6667;SDS011;3370;47.712;9.082;2023-12-20T13:04:41;1.43;;;1.00;;
6667;SDS011;3370;47.712;9.082;2023-12-20T13:07:08;1.20;;;1.10;;
6667;SDS011;3370;47.712;9.082;2023-12-20T13:09:37;1.10;;;1.10;;
6667;SDS011;3370;47.712;9.082;2023-12-20T13:12:04;1.50;;;1.43;;
6667;SDS011;3370;47.712;9.082;2023-12-20T13:14:34;2.00;;;1.23;;
6667;SDS011;3370;47.712;9.082;2023-12-20T13:17:03;1.20;;;1.10;;
6667;SDS011;3370;47.712;9.082;2023-12-20T13:19:29;2.00;;;1.43;;
6667;SDS011;3370;47.712;9.082;2023-12-20T13:21:55;1.40;;;1.30;;
6667;SDS011;3370;47.712;9.082;2023-12-20T13:24:23;1.70;;;1.60;;
6667;SDS011;3370;47.712;9.082;2023-12-20T13:26:48;3.20;;;1.30;;
6667;SDS011;3370;47.712;9.082;2023-12-20T13:29:14;1.33;;;1.33;;
6667;SDS011;3370;47.712;9.082;2023-12-20T13:31:40;1.10;;;1.10;;
6667;SDS011;3370;47.712;9.082;2023-12-20T13:34:06;1.30;;;1.20;;
6667;SDS011;3370;47.712;9.082;2023-12-20T13:36:32;2.33;;;1.37;;
6667;SDS011;3370;47.712;9.082;2023-12-20T13:38:58;1.27;;;1.27;;
6667;SDS011;3370;47.712;9.082;2023-12-20T13:41:24;1.70;;;1.60;;
6667;SDS011;3370;47.712;9.082;2023-12-20T13:43:49;1.43;;;1.43;;
6667;SDS011;3370;47.712;9.082;2023-12-20T13:46:15;1.70;;;1.60;;
6667;SDS011;3370;47.712;9.082;2023-12-20T13:48:42;2.83;;;2.43;;
6667;SDS011;3370;47.712;9.082;2023-12-20T13:51:08;1.87;;;1.77;;
6667;SDS011;3370;47.712;9.082;2023-12-20T13:53:33;1.60;;;1.50;;
6667;SDS011;3370;47.712;9.082;2023-12-20T13:55:59;3.03;;;1.60;;
6667;SDS011;3370;47.712;9.082;2023-12-20T13:58:25;1.93;;;1.70;;
6667;SDS011;3370;47.712;9.082;2023-12-20T14:00:51;2.40;;;1.80;;
6667;SDS011;3370;47.712;9.082;2023-12-20T14:03:17;1.73;;;1.50;;
6667;SDS011;3370;47.712;9.082;2023-12-20T14:05:42;1.60;;;1.50;;
6667;SDS011;3370;47.712;9.082;2023-12-20T14:08:08;3.37;;;1.80;;
6667;SDS011;3370;47.712;9.082;2023-12-20T14:10:35;1.53;;;1.40;;
6667;SDS011;3370;47.712;9.082;2023-12-20T14:13:00;1.87;;;1.50;;
6667;SDS011;3370;47.712;9.082;2023-12-20T14:15:26;1.90;;;1.70;;
6667;SDS011;3370;47.712;9.082;2023-12-20T14:17:52;2.20;;;2.10;;
6667;SDS011;3370;47.712;9.082;2023-12-20T14:20:18;2.00;;;1.90;;
6667;SDS011;3370;47.712;9.082;2023-12-20T14:22:44;2.03;;;1.93;;
6667;SDS011;3370;47.712;9.082;2023-12-20T14:25:13;2.33;;;2.23;;
6667;SDS011;3370;47.712;9.082;2023-12-20T14:27:39;1.80;;;1.70;;
6667;SDS011;3370;47.712;9.082;2023-12-20T14:30:08;2.20;;;1.80;;
6667;SDS011;3370;47.712;9.082;2023-12-20T14:32:35;2.20;;;1.70;;
6667;SDS011;3370;47.712;9.082;2023-12-20T14:35:07;1.90;;;1.50;;
6667;SDS011;3370;47.712;9.082;2023-12-20T14:37:33;3.30;;;1.60;;
6667;SDS011;3370;47.712;9.082;2023-12-20T14:40:01;1.70;;;1.17;;
6667;SDS011;3370;47.712;9.082;2023-12-20T14:42:27;2.23;;;2.13;;
6667;SDS011;3370;47.712;9.082;2023-12-20T14:44:53;2.17;;;1.80;;
6667;SDS011;3370;47.712;9.082;2023-12-20T14:47:19;3.43;;;1.83;;
6667;SDS011;3370;47.712;9.082;2023-12-20T14:49:45;1.80;;;1.70;;
6667;SDS011;3370;47.712;9.082;2023-12-20T14:52:12;1.93;;;1.83;;
6667;SDS011;3370;47.712;9.082;2023-12-20T14:54:38;3.87;;;2.20;;
6667;SDS011;3370;47.712;9.082;2023-12-20T14:57:04;3.57;;;1.50;;
6667;SDS011;3370;47.712;9.082;2023-12-20T14:59:30;3.10;;;1.93;;
6667;SDS011;3370;47.712;9.082;2023-12-20T15:01:55;5.67;;;1.60;;
6667;SDS011;3370;47.712;9.082;2023-12-20T15:04:21;1.97;;;1.87;;
6667;SDS011;3370;47.712;9.082;2023-12-20T15:06:53;2.00;;;1.80;;
6667;SDS011;3370;47.712;9.082;2023-12-20T15:09:20;2.47;;;2.00;;
6667;SDS011;3370;47.712;9.082;2023-12-20T15:11:46;2.10;;;2.00;;